TimePST,TemperatureF,Dew PointF,Humidity,Sea Level PressureIn,VisibilityMPH,Wind Direction,Wind SpeedMPH,Gust SpeedMPH,PrecipitationIn,Events,Conditions,WindDirDegrees,DateUTC
12:33 AM,57.2,55.4,94,30.08,10.0,Calm,Calm,-,N/A,,Overcast,0,1998-01-16 08:33:00
12:49 AM,55.4,53.6,94,30.08,8.0,NNE,4.6,-,N/A,,Overcast,20,1998-01-16 08:49:00
12:56 AM,55.0,54.0,96,30.07,5.0,NNE,4.6,-,N/A,,Overcast,20,1998-01-16 08:56:00
1:56 AM,54.0,54.0,100,30.09,4.0,North,4.6,-,N/A,,Overcast,350,1998-01-16 09:56:00
2:05 AM,53.6,53.6,100,30.10,4.0,North,3.5,-,N/A,,Overcast,360,1998-01-16 10:05:00
2:36 AM,53.6,53.6,100,30.10,3.0,North,3.5,-,N/A,,Overcast,360,1998-01-16 10:36:00
2:47 AM,53.6,53.6,100,30.10,2.5,NNE,5.8,-,N/A,,Overcast,30,1998-01-16 10:47:00
2:56 AM,53.1,53.1,100,30.09,2.5,NE,6.9,-,N/A,,Mostly Cloudy,50,1998-01-16 10:56:00
3:12 AM,53.6,53.6,100,30.09,1.8,NE,3.5,-,N/A,,Mostly Cloudy,50,1998-01-16 11:12:00
3:30 AM,53.6,53.6,100,30.09,1.5,Calm,Calm,-,N/A,,Overcast,0,1998-01-16 11:30:00
5:33 AM,53.6,53.6,100,30.13,4.0,Calm,Calm,-,N/A,Fog,Patches of Fog,0,1998-01-16 13:33:00
5:56 AM,54.0,54.0,100,30.13,2.5,Calm,Calm,-,0.01,Rain,Light Rain,0,1998-01-16 13:56:00
5:58 AM,53.6,53.6,100,30.13,1.8,Calm,Calm,-,0.00,Rain,Light Rain,0,1998-01-16 13:58:00
6:05 AM,53.6,53.6,100,30.12,2.0,ESE,3.5,-,0.00,Rain,Light Rain,110,1998-01-16 14:05:00
6:18 AM,53.6,53.6,100,30.10,2.5,ESE,9.2,-,0.00,,Overcast,110,1998-01-16 14:18:00
6:22 AM,53.6,53.6,100,30.10,1.8,ESE,9.2,-,0.00,,Overcast,110,1998-01-16 14:22:00
6:42 AM,53.6,53.6,100,30.08,3.0,ESE,11.5,-,0.00,,Mostly Cloudy,120,1998-01-16 14:42:00
6:56 AM,54.0,54.0,100,30.09,3.0,East,9.2,-,0.00,,Mostly Cloudy,80,1998-01-16 14:56:00
7:04 AM,53.6,53.6,100,30.11,3.0,ENE,10.4,-,N/A,,Mostly Cloudy,60,1998-01-16 15:04:00
7:14 AM,53.6,53.6,100,30.11,2.5,ENE,8.1,-,0.00,Rain,Light Rain,60,1998-01-16 15:14:00
7:35 AM,53.6,53.6,100,30.13,2.0,ENE,4.6,-,0.00,,Mostly Cloudy,70,1998-01-16 15:35:00
7:56 AM,54.0,54.0,100,30.12,2.5,SE,5.8,-,0.00,,Overcast,130,1998-01-16 15:56:00
8:56 AM,55.9,55.9,100,30.14,3.0,Calm,Calm,-,N/A,,Mostly Cloudy,0,1998-01-16 16:56:00
9:34 AM,57.2,55.4,94,30.14,9.0,SE,3.5,-,N/A,,Mostly Cloudy,140,1998-01-16 17:34:00
9:56 AM,57.0,55.9,96,30.13,9.0,SE,9.2,-,N/A,,Mostly Cloudy,140,1998-01-16 17:56:00
10:56 AM,61.0,57.9,90,30.14,10.0,South,12.7,-,N/A,,Mostly Cloudy,190,1998-01-16 18:56:00
11:56 AM,62.1,59.0,90,30.15,10.0,SW,9.2,-,N/A,,Mostly Cloudy,220,1998-01-16 19:56:00
12:56 PM,62.1,57.9,86,30.12,10.0,South,9.2,-,N/A,,Mostly Cloudy,180,1998-01-16 20:56:00
1:56 PM,62.1,57.9,86,30.11,10.0,South,9.2,-,N/A,,Mostly Cloudy,170,1998-01-16 21:56:00
2:28 PM,62.6,57.2,82,30.12,10.0,South,8.1,-,N/A,,Overcast,180,1998-01-16 22:28:00
2:45 PM,62.6,57.2,82,30.13,10.0,SSW,10.4,-,N/A,,Overcast,200,1998-01-16 22:45:00
2:56 PM,62.1,57.9,86,30.14,8.0,South,6.9,-,N/A,,Overcast,190,1998-01-16 22:56:00
3:35 PM,62.6,57.2,82,30.14,10.0,SSW,8.1,-,N/A,,Overcast,200,1998-01-16 23:35:00
3:56 PM,62.1,57.0,84,30.15,8.0,SSW,11.5,-,0.00,Rain,Light Rain,210,1998-01-16 23:56:00
4:15 PM,60.8,57.2,88,30.15,10.0,SW,12.7,-,0.00,,Mostly Cloudy,220,1998-01-17 00:15:00
4:56 PM,61.0,57.9,90,30.15,6.0,SW,6.9,-,0.00,,Overcast,220,1998-01-17 00:56:00
5:56 PM,61.0,57.9,90,30.16,10.0,WSW,8.1,-,N/A,,Mostly Cloudy,240,1998-01-17 01:56:00
6:56 PM,60.1,57.9,93,30.18,7.0,SSW,5.8,-,0.01,Rain,Light Rain,210,1998-01-17 02:56:00
7:56 PM,60.1,55.9,86,30.19,10.0,SSE,6.9,-,0.00,,Mostly Cloudy,160,1998-01-17 03:56:00
8:56 PM,61.0,54.0,78,30.18,10.0,South,3.5,-,N/A,,Mostly Cloudy,170,1998-01-17 04:56:00
9:56 PM,61.0,54.0,78,30.20,10.0,SSW,6.9,-,N/A,,Mostly Cloudy,210,1998-01-17 05:56:00
10:56 PM,60.1,55.0,83,30.20,10.0,SSW,5.8,-,N/A,,Mostly Cloudy,200,1998-01-17 06:56:00
11:56 PM,60.1,54.0,80,30.20,10.0,SSE,4.6,-,N/A,,Mostly Cloudy,150,1998-01-17 07:56:00